createdAt,value
2022-11-16T00:00:33.675Z,74.77
2022-11-16T00:02:59.932Z,74.10
2022-11-16T00:05:28.478Z,74.33
2022-11-16T00:07:54.896Z,74.53
2022-11-16T00:10:21.104Z,74.90
2022-11-16T00:12:47.346Z,74.08
2022-11-16T00:15:13.698Z,75.17
2022-11-16T00:17:39.925Z,74.40
2022-11-16T00:20:06.143Z,74.26
2022-11-16T00:22:32.389Z,73.78
2022-11-16T00:24:58.711Z,74.31
2022-11-16T00:27:25.000Z,73.88
2022-11-16T00:29:51.238Z,73.52
2022-11-16T00:32:17.453Z,73.29
2022-11-16T00:34:43.666Z,73.85
2022-11-16T00:37:09.890Z,74.34
2022-11-16T00:39:36.144Z,73.62
2022-11-16T00:42:02.425Z,73.76
2022-11-16T00:44:28.631Z,73.98
2022-11-16T00:46:54.855Z,73.42
2022-11-16T00:49:21.073Z,72.75
2022-11-16T00:51:47.343Z,73.52
2022-11-16T00:54:13.598Z,72.90
2022-11-16T00:56:39.848Z,73.12
2022-11-16T00:59:06.075Z,74.25
2022-11-16T01:01:32.331Z,74.05
2022-11-16T01:03:58.588Z,75.12
2022-11-16T01:06:24.872Z,73.87
2022-11-16T01:08:51.124Z,75.49
2022-11-16T01:11:36.146Z,74.74
2022-11-16T01:14:02.347Z,74.37
2022-11-16T01:16:31.778Z,74.79
2022-11-16T01:18:58.004Z,74.50
2022-11-16T01:21:24.348Z,74.74
2022-11-16T01:23:50.552Z,73.88
2022-11-16T01:26:16.783Z,73.79
2022-11-16T01:28:42.983Z,74.08
2022-11-16T01:31:09.218Z,74.63
2022-11-16T01:33:35.517Z,74.45
2022-11-16T01:36:01.806Z,73.67
2022-11-16T01:38:29.939Z,72.99
2022-11-16T01:40:56.480Z,73.75
2022-11-16T08:18:20.257Z,95.08
2022-11-16T08:20:46.622Z,93.29
2022-11-16T08:23:13.024Z,93.84
2022-11-16T08:25:39.316Z,92.81
2022-11-16T08:28:05.745Z,90.91
2022-11-16T08:30:32.024Z,91.56
2022-11-16T08:32:58.313Z,90.12
2022-11-16T08:35:24.673Z,91.45
2022-11-16T08:37:50.974Z,89.98
2022-11-16T08:40:17.307Z,90.50
2022-11-16T08:42:44.093Z,89.13
2022-11-16T08:45:10.486Z,88.59
2022-11-16T08:47:36.791Z,89.38
2022-11-16T08:50:03.543Z,90.17
2022-11-16T08:52:29.821Z,87.53
2022-11-16T08:54:59.143Z,88.13
2022-11-16T08:57:25.420Z,86.00
2022-11-16T08:59:51.699Z,86.02
2022-11-16T09:02:25.226Z,86.61
2022-11-16T09:04:51.625Z,84.43
2022-11-16T09:07:17.953Z,86.99
2022-11-16T09:09:44.313Z,86.43
2022-11-16T09:12:10.576Z,85.36
2022-11-16T09:14:36.856Z,85.24
2022-11-16T09:17:03.157Z,85.19
2022-11-16T09:19:29.471Z,86.05
2022-11-16T09:21:55.867Z,86.79
2022-11-16T09:24:22.143Z,85.39
2022-11-16T09:26:48.427Z,85.97
2022-11-16T09:29:14.712Z,84.82
2022-11-16T09:31:40.999Z,84.62
2022-11-16T09:34:07.443Z,84.45
2022-11-16T09:36:33.730Z,86.13
2022-11-16T09:41:47.218Z,83.83
2022-11-16T09:44:13.553Z,83.50
2022-11-16T09:46:39.814Z,83.60
2022-11-16T09:49:10.517Z,81.90
2022-11-16T09:51:43.606Z,81.92
2022-11-16T09:54:10.023Z,82.00
2022-11-16T09:56:36.791Z,79.94
2022-11-16T09:59:03.208Z,81.42
2022-11-16T10:01:29.579Z,81.13
2022-11-16T10:03:55.901Z,79.62
2022-11-16T10:06:22.234Z,81.66
2022-11-16T10:08:48.575Z,80.84
2022-11-16T10:11:14.861Z,81.57
2022-11-16T10:13:41.154Z,80.52
2022-11-16T10:16:07.757Z,80.46
2022-11-16T10:18:34.051Z,81.96
2022-11-16T10:21:00.415Z,81.86
2022-11-16T10:23:26.695Z,81.87
2022-11-16T10:25:53.329Z,79.61
2022-11-16T10:28:19.677Z,78.90
2022-11-16T10:30:45.967Z,82.95
2022-11-16T10:33:12.391Z,80.19
2022-11-16T10:35:39.600Z,81.93
2022-11-16T10:38:08.993Z,82.13
2022-11-16T10:40:35.312Z,80.51
2022-11-16T10:43:01.667Z,81.84
2022-11-16T10:45:27.949Z,82.23
2022-11-16T10:47:54.279Z,81.69
2022-11-16T10:50:20.746Z,80.01
2022-11-16T10:52:47.087Z,81.07
2022-11-16T10:55:13.369Z,81.23
2022-11-16T10:57:39.645Z,81.10
2022-11-16T11:00:12.540Z,82.07
2022-11-16T11:02:39.838Z,81.01
2022-11-16T11:05:06.111Z,80.82
2022-11-16T11:07:32.493Z,81.39
2022-11-16T11:09:58.870Z,79.04
2022-11-16T11:12:40.568Z,80.42
2022-11-16T11:15:07.027Z,78.41
2022-11-16T11:17:33.315Z,78.49
2022-11-16T11:20:00.504Z,80.73
2022-11-16T11:22:26.819Z,79.82
2022-11-16T11:24:53.094Z,78.57
2022-11-16T11:27:19.396Z,79.28
2022-11-16T11:29:45.789Z,80.07
2022-11-16T11:35:03.513Z,81.54
2022-11-16T11:37:30.442Z,79.83
2022-11-16T11:39:56.733Z,81.74
2022-11-16T11:42:23.103Z,82.16
2022-11-16T11:44:50.417Z,80.44
2022-11-16T11:47:50.789Z,79.14
2022-11-16T11:50:03.039Z,80.79
2022-11-16T11:52:29.362Z,80.61
2022-11-16T11:54:55.767Z,80.46
2022-11-16T11:57:23.123Z,80.18
2022-11-16T11:59:49.522Z,78.62
2022-11-16T12:02:15.980Z,79.95
2022-11-16T12:04:42.304Z,80.20
2022-11-16T12:07:08.658Z,79.77
2022-11-16T12:09:34.966Z,79.89
2022-11-16T12:12:01.286Z,80.58
2022-11-16T12:14:27.567Z,76.36
2022-11-16T12:16:53.859Z,78.57
2022-11-16T12:19:20.163Z,79.66
2022-11-16T12:21:46.696Z,80.54
2022-11-16T12:24:13.067Z,83.49
2022-11-16T12:26:39.692Z,80.48
2022-11-16T12:29:05.960Z,83.10
2022-11-16T12:31:32.254Z,82.22
2022-11-16T12:33:58.603Z,80.50
2022-11-16T12:36:24.920Z,82.99
2022-11-16T12:38:51.240Z,80.59
2022-11-16T12:41:17.614Z,80.47
2022-11-16T12:43:43.893Z,80.76
2022-11-16T12:46:10.425Z,80.73
2022-11-16T12:48:36.728Z,78.69
2022-11-16T12:51:02.993Z,79.55
2022-11-16T12:53:29.339Z,76.75
2022-11-16T12:55:55.601Z,78.12
2022-11-16T12:58:21.948Z,77.93
2022-11-16T13:00:48.334Z,79.32
2022-11-16T13:03:14.720Z,78.51
2022-11-16T13:05:41.050Z,79.20
2022-11-16T13:08:07.816Z,79.31
2022-11-16T13:10:34.112Z,78.49
2022-11-16T13:13:29.531Z,84.77
2022-11-16T13:15:47.908Z,79.45
2022-11-16T13:18:14.238Z,82.29
2022-11-16T13:20:40.579Z,78.18
2022-11-16T13:23:06.932Z,80.80
2022-11-16T13:25:33.213Z,83.75
2022-11-16T13:27:59.482Z,83.70
2022-11-16T13:30:25.760Z,84.69
2022-11-16T13:32:52.054Z,86.25
2022-11-16T13:35:18.544Z,87.67
2022-11-16T13:37:44.917Z,88.38
2022-11-16T13:40:11.338Z,87.80
2022-11-16T13:42:38.194Z,88.58
2022-11-16T13:45:04.475Z,87.38
2022-11-16T13:47:30.936Z,86.95
2022-11-16T13:49:57.420Z,88.37
2022-11-16T13:52:31.566Z,87.15
2022-11-16T13:55:06.625Z,87.82
2022-11-16T13:57:32.928Z,89.21
2022-11-16T13:59:59.204Z,89.76
2022-11-16T14:02:25.566Z,88.00
2022-11-16T14:04:51.838Z,89.85
2022-11-16T14:07:18.245Z,87.38
2022-11-16T14:09:44.647Z,87.50
2022-11-16T14:12:10.947Z,89.46
2022-11-16T14:14:37.216Z,90.55
2022-11-16T14:17:03.547Z,90.17
2022-11-16T14:19:29.857Z,89.08
2022-11-16T14:21:56.131Z,89.57
2022-11-16T14:24:22.417Z,89.52
2022-11-16T14:26:48.834Z,90.81
2022-11-16T14:29:15.489Z,91.66
2022-11-16T14:31:41.781Z,90.37
2022-11-16T14:34:08.213Z,90.58
2022-11-16T14:36:34.499Z,91.40
2022-11-16T14:39:00.937Z,90.59
2022-11-16T14:41:27.213Z,90.82
2022-11-16T14:43:53.506Z,90.69
2022-11-16T14:46:19.768Z,89.76
2022-11-16T14:48:46.119Z,90.68
2022-11-16T14:51:12.486Z,89.81
2022-11-16T14:53:38.870Z,90.46
2022-11-16T14:56:05.268Z,91.95
2022-11-16T14:58:31.907Z,91.09
2022-11-16T15:00:58.169Z,91.44
2022-11-16T15:03:24.596Z,93.37
2022-11-16T15:05:50.970Z,92.27
2022-11-16T15:08:17.517Z,90.71
2022-11-16T15:10:46.925Z,90.85
2022-11-16T15:13:15.774Z,92.25
2022-11-16T15:15:42.057Z,92.92
2022-11-16T15:18:08.525Z,93.57
2022-11-16T15:20:34.906Z,92.28
2022-11-16T15:23:01.219Z,91.58
2022-11-16T15:25:27.583Z,91.61
2022-11-16T15:27:53.917Z,91.69
2022-11-16T15:30:20.218Z,92.84
2022-11-16T15:32:46.532Z,93.71
2022-11-16T15:35:12.867Z,92.86
2022-11-16T15:37:39.139Z,93.55
2022-11-16T15:40:05.482Z,93.76
2022-11-16T15:42:31.833Z,93.88
2022-11-16T15:44:58.109Z,93.42
2022-11-16T15:47:24.379Z,93.00
2022-11-16T15:49:52.928Z,94.02
2022-11-16T15:52:19.319Z,93.74
2022-11-16T15:55:04.041Z,93.56
2022-11-16T15:57:30.338Z,93.75
2022-11-16T15:59:57.099Z,93.95
2022-11-16T16:02:23.401Z,94.65
2022-11-16T16:04:49.700Z,93.56
2022-11-16T16:07:16.409Z,92.57
2022-11-16T16:09:42.695Z,93.35
2022-11-16T16:12:08.970Z,93.63
2022-11-16T16:14:35.244Z,93.64
2022-11-16T16:17:01.523Z,92.98
2022-11-16T16:19:27.838Z,93.91
2022-11-16T16:21:54.107Z,94.10
2022-11-16T16:24:20.457Z,94.34
2022-11-16T16:26:46.766Z,95.39
2022-11-16T16:29:13.032Z,95.14
2022-11-16T16:31:39.325Z,94.81
2022-11-16T16:34:05.609Z,93.33
2022-11-16T16:36:31.922Z,94.55
2022-11-16T16:38:58.412Z,94.33
2022-11-16T16:41:24.940Z,93.82
2022-11-16T16:43:51.238Z,94.37
2022-11-16T16:46:17.639Z,93.93
2022-11-16T16:48:44.843Z,93.90
2022-11-16T16:51:11.251Z,93.91
2022-11-16T16:53:37.513Z,93.24
2022-11-16T16:56:03.845Z,93.63
2022-11-16T16:58:30.124Z,94.38
2022-11-16T17:01:01.139Z,93.84
2022-11-16T17:03:27.842Z,93.19
2022-11-16T17:05:54.318Z,93.43
2022-11-16T17:08:21.068Z,93.23
2022-11-16T17:10:47.339Z,93.10
2022-11-16T17:13:13.610Z,93.92
2022-11-16T17:15:39.874Z,95.17
2022-11-16T17:18:06.158Z,94.69
2022-11-16T17:20:32.457Z,94.54
2022-11-16T17:22:58.761Z,95.04
2022-11-16T17:25:25.039Z,94.94
2022-11-16T17:27:51.321Z,94.28
2022-11-16T17:30:17.586Z,94.65
2022-11-16T17:32:43.920Z,94.95
2022-11-16T17:35:10.350Z,93.73
2022-11-16T17:37:36.588Z,93.82
2022-11-16T17:40:02.865Z,94.04
2022-11-16T17:42:29.141Z,94.61
2022-11-16T17:44:55.486Z,93.37
2022-11-16T17:47:24.926Z,93.25
2022-11-16T17:49:51.476Z,93.41
2022-11-16T17:52:22.191Z,94.17
2022-11-16T17:54:48.821Z,93.61
2022-11-16T17:57:15.266Z,93.84
2022-11-16T17:59:41.642Z,94.23
2022-11-16T18:02:07.925Z,92.57
2022-11-16T18:04:34.253Z,93.19
2022-11-16T18:07:01.225Z,93.46
2022-11-16T18:09:27.525Z,93.40
2022-11-16T18:11:53.800Z,93.76
2022-11-16T18:14:20.075Z,93.72
2022-11-16T18:16:47.889Z,94.38
2022-11-16T18:19:14.215Z,94.69
2022-11-16T18:21:40.511Z,93.83
2022-11-16T18:24:07.147Z,94.95
2022-11-16T18:26:33.441Z,94.58
2022-11-16T18:28:59.745Z,94.76
2022-11-16T18:31:26.008Z,94.68
2022-11-16T18:33:52.392Z,93.88
2022-11-16T18:36:18.689Z,93.96
2022-11-16T18:38:45.007Z,93.74
2022-11-16T18:41:11.276Z,93.92
2022-11-16T18:43:37.812Z,94.19
2022-11-16T18:46:04.320Z,94.70
2022-11-16T18:48:30.592Z,94.39
2022-11-16T18:50:56.896Z,94.35
2022-11-16T18:53:23.189Z,93.48
2022-11-16T18:55:57.629Z,92.90
2022-11-16T18:58:49.199Z,94.13
2022-11-16T19:01:11.085Z,93.89
2022-11-16T19:03:37.713Z,94.66
2022-11-16T19:06:04.088Z,94.68
2022-11-16T19:08:30.351Z,94.05
2022-11-16T19:10:56.663Z,93.85
2022-11-16T19:13:22.937Z,93.26
2022-11-16T19:15:50.094Z,93.18
2022-11-16T19:18:21.777Z,94.42
2022-11-16T19:20:48.413Z,92.33
2022-11-16T19:23:14.828Z,93.24
2022-11-16T19:25:41.101Z,92.80
2022-11-16T19:28:10.793Z,93.64
2022-11-16T19:30:37.068Z,93.42
2022-11-16T19:33:04.033Z,93.03
2022-11-16T19:35:30.296Z,94.53
2022-11-16T19:37:57.492Z,94.71
2022-11-16T19:40:25.168Z,94.02
2022-11-16T19:42:51.677Z,93.08
2022-11-16T19:45:17.968Z,93.18
2022-11-16T19:47:44.550Z,92.87
2022-11-16T19:50:11.720Z,94.05
2022-11-16T19:52:38.212Z,94.08
2022-11-16T19:55:09.994Z,94.30
2022-11-16T19:57:36.282Z,94.04
2022-11-16T20:00:02.697Z,94.20
2022-11-16T20:02:29.064Z,93.60
2022-11-16T20:04:55.376Z,94.18
2022-11-16T20:07:21.756Z,93.72
2022-11-16T20:09:53.091Z,94.72
2022-11-16T20:12:19.731Z,93.75
2022-11-16T20:14:46.182Z,94.08
2022-11-16T20:17:13.241Z,94.17
2022-11-16T20:19:39.439Z,93.54
2022-11-16T20:22:08.351Z,92.86
2022-11-16T20:24:34.662Z,92.68
2022-11-16T20:27:00.907Z,94.23
2022-11-16T20:29:28.804Z,95.23
2022-11-16T20:31:55.096Z,94.75
2022-11-16T20:34:22.412Z,94.58
2022-11-16T20:36:53.829Z,94.87
2022-11-16T20:39:20.539Z,94.64
2022-11-16T20:41:47.658Z,94.17
2022-11-16T20:44:22.185Z,95.29
2022-11-16T20:46:48.952Z,94.76
2022-11-16T20:49:15.203Z,94.26
2022-11-16T20:51:41.500Z,94.04
2022-11-16T20:54:07.926Z,93.91
2022-11-16T20:56:34.382Z,94.53
2022-11-16T20:59:00.845Z,94.47
2022-11-16T21:01:33.343Z,94.57
2022-11-16T21:03:59.703Z,94.57
2022-11-16T21:06:26.260Z,95.20
2022-11-16T21:08:52.559Z,94.94
2022-11-16T21:11:18.935Z,96.01
2022-11-16T21:14:04.002Z,96.49
2022-11-16T21:16:30.284Z,94.74
2022-11-16T21:18:56.650Z,95.24
2022-11-16T21:21:22.895Z,95.40
2022-11-16T21:23:52.386Z,94.72
2022-11-16T21:26:18.662Z,94.75
2022-11-16T21:28:45.459Z,95.69
2022-11-16T21:31:11.727Z,95.65
2022-11-16T21:33:38.257Z,95.26
2022-11-16T21:36:05.001Z,94.71
2022-11-16T21:38:31.284Z,95.00
2022-11-16T21:40:57.603Z,94.37
2022-11-16T21:43:23.874Z,94.67
2022-11-16T21:45:51.048Z,95.73
2022-11-16T21:48:17.321Z,94.34
2022-11-16T21:50:43.530Z,95.52
2022-11-16T21:53:09.766Z,95.45
2022-11-16T21:55:36.008Z,95.51
2022-11-16T21:58:05.262Z,94.88
2022-11-16T22:00:31.562Z,95.33
2022-11-16T22:02:57.859Z,94.13
2022-11-16T22:05:43.075Z,93.95
2022-11-16T22:08:09.279Z,92.61
2022-11-16T22:10:35.517Z,93.33
2022-11-16T22:13:01.787Z,93.40
2022-11-16T22:15:28.121Z,93.80
2022-11-16T22:17:54.342Z,92.47
2022-11-16T22:20:21.035Z,92.73
2022-11-16T22:22:47.248Z,92.96
2022-11-16T22:25:16.856Z,93.63
2022-11-16T22:28:13.487Z,92.71
2022-11-16T22:30:29.298Z,93.80
2022-11-16T22:32:55.527Z,93.77
2022-11-16T22:35:21.745Z,93.44
2022-11-16T22:37:47.973Z,93.47
2022-11-16T22:40:17.762Z,93.63
2022-11-16T22:42:44.266Z,94.62
2022-11-16T22:45:10.492Z,93.71
2022-11-16T22:47:36.739Z,93.27
2022-11-16T22:50:02.956Z,94.23
2022-11-16T22:52:29.305Z,93.00
2022-11-16T22:54:55.507Z,93.33
2022-11-16T22:57:25.721Z,93.07
2022-11-16T22:59:51.948Z,93.23
2022-11-16T23:02:18.277Z,93.75
2022-11-16T23:04:44.628Z,92.88
2022-11-16T23:07:10.873Z,90.85
2022-11-16T23:09:37.122Z,91.32
2022-11-16T23:12:21.975Z,92.70
2022-11-16T23:15:06.917Z,93.10
2022-11-16T23:17:33.120Z,92.34
2022-11-16T23:20:18.288Z,93.12
2022-11-16T23:23:02.947Z,92.26
2022-11-16T23:25:47.741Z,92.67
2022-11-16T23:28:14.033Z,91.07
2022-11-16T23:30:40.244Z,90.91
2022-11-16T23:33:06.513Z,92.44
2022-11-16T23:35:32.723Z,92.67
2022-11-16T23:37:59.024Z,92.17
2022-11-16T23:40:25.245Z,92.70
2022-11-16T23:43:10.213Z,91.67
2022-11-16T23:45:36.457Z,91.92
2022-11-16T23:48:02.700Z,92.08
2022-11-16T23:50:28.956Z,92.09
2022-11-16T23:52:55.163Z,91.91
2022-11-16T23:55:23.041Z,92.50
2022-11-16T23:57:49.318Z,91.39
